Tashkent, Uzbekistan
Current Conditions -  °F | °C
As of 5:00 PM on Saturday 25 Oct 2014 (Local Time) from UTTT Reporting Station
Smoke Smoke  
Wind Chill: 70°   Ceiling: Unl
Heat Index: 70°   Visibility: 3mi
Dew Point: 48°   Wind: 4mph
Humidity: 46%   Direction: 300°WNW
Pressure: 29.97"   Gusts: NA
Location:  41.31°N, 69.3°E
Report Text: UTTT 251200Z 30002MPS 5000 FU NSC 21/09 Q1015 R08R/CLRD70NOSIG
Loading
Personal Weather Stations






























Interactive Weather Map
Tropical Storm Tracking
New forecast layout! Learn more

10-Day Weather Forecast

Advertisements
Track Severe Weather on mobile